Zim Rio Grande — 9HNV9 — position and weather

sailwx.info

Track history (hours):
 
Tides and Currents Weather Stations Pressure Air Temp Water Temp Dewpoint Dewpoint Depression Visibility Wind Speed Wind Dir Waves Ship Positions

Zim Rio Grande

Last reported at 2016-Aug-26 19:33 UTC. Time now 2016-Aug-29 23:33 UTC.
Position N 22°06' E 114°20'.

Length 260 m; draft 11.6 m.

Type: Cargo ship. MMSI: 249253000.

Date/timePositionNaut miles runAvg speedWind from/ knotsBaromVisibWave heightAir tempDewpointWater temp
2016-Aug-26 19:33N 22°06' E 114°20'2010.1
2016-Aug-26 17:33N 22°20' E 114°05'1110.9
2016-Aug-26 16:33N 22°23' E 113°53'2 0.1
2016-Aug-26 00:33N 22°25' E 113°53'12 9.1
2016-Aug-25 23:13N 22°20' E 114°05'1810.3
2016-Aug-25 21:31N 22°08' E 114°19'14714.7
2016-Aug-25 11:29N 22°48' E 116°52'1616.5
2016-Aug-25 10:32N 22°56' E 117°07'1616.4
2016-Aug-25 09:32N 23°04' E 117°23'11516.1
2016-Aug-25 02:21N 24°14' E 119°03'1316.3
2016-Aug-25 01:33N 24°21' E 119°15'2717.9
2016-Aug-25 00:04N 24°37' E 119°38'1119.3
2016-Aug-24 23:30N 24°45' E 119°46'2119.3
2016-Aug-24 22:25N 25°01' E 120°01'38815.5
2016-Aug-23 21:23N 31°18' E 121°45'910.6
2016-Aug-23 20:33N 31°22' E 121°36'1 0.7
2016-Aug-23 19:33N 31°22' E 121°35'0 0.0
2016-Aug-23 18:33N 31°22' E 121°35'0 0.0
2016-Aug-23 17:30N 31°22' E 121°35'0 0.0
2016-Aug-23 16:30N 31°22' E 121°35'0 0.0
2016-Aug-23 15:21N 31°22' E 121°35'0 0.0
2016-Aug-23 14:27N 31°22' E 121°35'0 0.0
2016-Aug-23 13:30N 31°22' E 121°35'0 0.0
2016-Aug-23 12:27N 31°22' E 121°35'0 0.0
2016-Aug-23 11:30N 31°22' E 121°35'0 0.0
2016-Aug-23 10:30N 31°22' E 121°35'0 0.0
2016-Aug-23 09:33N 31°22' E 121°35'0 0.0
2016-Aug-23 08:21N 31°22' E 121°35'0 0.0
2016-Aug-23 07:33N 31°22' E 121°35'0 0.1
2016-Aug-23 06:27N 31°22' E 121°36'0 0.1
2016-Aug-23 05:31N 31°22' E 121°35'4 4.0
2016-Aug-23 04:33N 31°21' E 121°40'1311.6
2016-Aug-23 03:27N 31°16' E 121°53'  
2016-Aug-20 14:10N 36°36' E 122°24'915.1
2016-Aug-20 13:33N 36°41' E 122°34'1515.3
2016-Aug-20 12:34N 36°55' E 122°41'1515.1
2016-Aug-20 11:33N 37°10' E 122°46'1615.0
2016-Aug-20 10:29N 37°26' E 122°47'1313.7
2016-Aug-20 09:33N 37°36' E 122°36'8814.2
2016-Aug-20 03:20N 38°28' E 121°06'7 9.4
2016-Aug-20 02:33N 38°32' E 120°58'10 9.6
2016-Aug-20 01:33N 38°34' E 120°46'1312.9
2016-Aug-20 00:33N 38°35' E 120°29'12115.1
2016-Aug-19 16:33N 38°57' E 117°57'8 8.1
2016-Aug-19 15:33N 38°59' E 117°47'0 0.0
2016-Aug-19 14:29N 38°59' E 117°47'0 0.0
2016-Aug-19 13:29N 38°59' E 117°47'0 0.0
2016-Aug-19 12:29N 38°59' E 117°47'0 0.0
2016-Aug-19 11:29N 38°59' E 117°47'0 0.0
2016-Aug-19 10:23N 38°59' E 117°47'0 0.0
2016-Aug-19 09:23N 38°59' E 117°47'0 0.0
2016-Aug-19 08:29N 38°59' E 117°47'0 0.0
2016-Aug-19 07:23N 38°59' E 117°47'0 0.1
2016-Aug-19 06:30N 38°59' E 117°47'0 0.0
2016-Aug-19 05:29N 38°59' E 117°47'0 0.0
2016-Aug-19 04:23N 38°59' E 117°47'0 0.0
2016-Aug-19 03:29N 38°59' E 117°47'0 0.0
2016-Aug-19 02:29N 38°59' E 117°47'0 0.0
2016-Aug-19 01:17N 38°59' E 117°47'0 0.0
2016-Aug-19 00:29N 38°59' E 117°47'0 0.0
2016-Aug-18 23:29N 38°59' E 117°47'0 0.1
2016-Aug-18 22:33N 38°59' E 117°47'10 8.9
2016-Aug-18 21:27N 38°57' E 117°59'10912.2
2016-Aug-18 12:33N 38°39' E 120°16'1313.2
2016-Aug-18 11:33N 38°38' E 120°33'1111.1
2016-Aug-18 10:33N 38°37' E 120°47'9 9.1
2016-Aug-18 09:33N 38°35' E 120°59'1313.4
2016-Aug-18 08:33N 38°29' E 121°14'1716.9
2016-Aug-18 07:34N 38°21' E 121°33'1817.5
2016-Aug-18 06:33N 38°13' E 121°53'1817.6
2016-Aug-18 05:34N 38°04' E 122°12'2416.8
2016-Aug-18 04:06N 37°50' E 122°38'916.2
2016-Aug-18 03:33N 37°45' E 122°47'1615.5
2016-Aug-18 02:29N 37°34' E 123°03'1616.4
2016-Aug-18 01:32N 37°19' E 123°03'1818.2
2016-Aug-18 00:33N 37°01' E 123°06'  
Track history (hours):
 
Tides and Currents Weather Stations Pressure Air Temp Water Temp Dewpoint Dewpoint Depression Visibility Wind Speed Wind Dir Waves Ship Positions

Zim Rio Grande

Last reported at 2016-Aug-26 19:33 UTC. Time now 2016-Aug-29 23:33 UTC.
Position N 22°06' E 114°20'.

Length 260 m; draft 11.6 m.

Type: Cargo ship. MMSI: 249253000.

Date/timePositionNaut miles runAvg speedWind from/ knotsBaromVisibWave heightAir tempDewpointWater temp
2016-Aug-26 19:33N 22°06' E 114°20'2010.1
2016-Aug-26 17:33N 22°20' E 114°05'1110.9
2016-Aug-26 16:33N 22°23' E 113°53'2 0.1
2016-Aug-26 00:33N 22°25' E 113°53'12 9.1
2016-Aug-25 23:13N 22°20' E 114°05'1810.3
2016-Aug-25 21:31N 22°08' E 114°19'14714.7
2016-Aug-25 11:29N 22°48' E 116°52'1616.5
2016-Aug-25 10:32N 22°56' E 117°07'1616.4
2016-Aug-25 09:32N 23°04' E 117°23'11516.1
2016-Aug-25 02:21N 24°14' E 119°03'1316.3
2016-Aug-25 01:33N 24°21' E 119°15'2717.9
2016-Aug-25 00:04N 24°37' E 119°38'1119.3
2016-Aug-24 23:30N 24°45' E 119°46'2119.3
2016-Aug-24 22:25N 25°01' E 120°01'38815.5
2016-Aug-23 21:23N 31°18' E 121°45'910.6
2016-Aug-23 20:33N 31°22' E 121°36'1 0.7
2016-Aug-23 19:33N 31°22' E 121°35'0 0.0
2016-Aug-23 18:33N 31°22' E 121°35'0 0.0
2016-Aug-23 17:30N 31°22' E 121°35'0 0.0
2016-Aug-23 16:30N 31°22' E 121°35'0 0.0
2016-Aug-23 15:21N 31°22' E 121°35'0 0.0
2016-Aug-23 14:27N 31°22' E 121°35'0 0.0
2016-Aug-23 13:30N 31°22' E 121°35'0 0.0
2016-Aug-23 12:27N 31°22' E 121°35'0 0.0
2016-Aug-23 11:30N 31°22' E 121°35'0 0.0
2016-Aug-23 10:30N 31°22' E 121°35'0 0.0
2016-Aug-23 09:33N 31°22' E 121°35'0 0.0
2016-Aug-23 08:21N 31°22' E 121°35'0 0.0
2016-Aug-23 07:33N 31°22' E 121°35'0 0.1
2016-Aug-23 06:27N 31°22' E 121°36'0 0.1
2016-Aug-23 05:31N 31°22' E 121°35'4 4.0
2016-Aug-23 04:33N 31°21' E 121°40'1311.6
2016-Aug-23 03:27N 31°16' E 121°53'  
2016-Aug-20 14:10N 36°36' E 122°24'915.1
2016-Aug-20 13:33N 36°41' E 122°34'1515.3
2016-Aug-20 12:34N 36°55' E 122°41'1515.1
2016-Aug-20 11:33N 37°10' E 122°46'1615.0
2016-Aug-20 10:29N 37°26' E 122°47'1313.7
2016-Aug-20 09:33N 37°36' E 122°36'8814.2
2016-Aug-20 03:20N 38°28' E 121°06'7 9.4
2016-Aug-20 02:33N 38°32' E 120°58'10 9.6
2016-Aug-20 01:33N 38°34' E 120°46'1312.9
2016-Aug-20 00:33N 38°35' E 120°29'12115.1
2016-Aug-19 16:33N 38°57' E 117°57'8 8.1
2016-Aug-19 15:33N 38°59' E 117°47'0 0.0
2016-Aug-19 14:29N 38°59' E 117°47'0 0.0
2016-Aug-19 13:29N 38°59' E 117°47'0 0.0
2016-Aug-19 12:29N 38°59' E 117°47'0 0.0
2016-Aug-19 11:29N 38°59' E 117°47'0 0.0
2016-Aug-19 10:23N 38°59' E 117°47'0 0.0
2016-Aug-19 09:23N 38°59' E 117°47'0 0.0
2016-Aug-19 08:29N 38°59' E 117°47'0 0.0
2016-Aug-19 07:23N 38°59' E 117°47'0 0.1
2016-Aug-19 06:30N 38°59' E 117°47'0 0.0
2016-Aug-19 05:29N 38°59' E 117°47'0 0.0
2016-Aug-19 04:23N 38°59' E 117°47'0 0.0
2016-Aug-19 03:29N 38°59' E 117°47'0 0.0
2016-Aug-19 02:29N 38°59' E 117°47'0 0.0
2016-Aug-19 01:17N 38°59' E 117°47'0 0.0
2016-Aug-19 00:29N 38°59' E 117°47'0 0.0
2016-Aug-18 23:29N 38°59' E 117°47'0 0.1
2016-Aug-18 22:33N 38°59' E 117°47'10 8.9
2016-Aug-18 21:27N 38°57' E 117°59'10912.2
2016-Aug-18 12:33N 38°39' E 120°16'1313.2
2016-Aug-18 11:33N 38°38' E 120°33'1111.1
2016-Aug-18 10:33N 38°37' E 120°47'9 9.1
2016-Aug-18 09:33N 38°35' E 120°59'1313.4
2016-Aug-18 08:33N 38°29' E 121°14'1716.9
2016-Aug-18 07:34N 38°21' E 121°33'1817.5
2016-Aug-18 06:33N 38°13' E 121°53'1817.6
2016-Aug-18 05:34N 38°04' E 122°12'2416.8
2016-Aug-18 04:06N 37°50' E 122°38'916.2
2016-Aug-18 03:33N 37°45' E 122°47'1615.5
2016-Aug-18 02:29N 37°34' E 123°03'1616.4
2016-Aug-18 01:32N 37°19' E 123°03'1818.2
2016-Aug-18 00:33N 37°01' E 123°06'  

Dump ship's entire track history